createdAt,value
2017-08-22T00:00:58.065Z,6.07
2017-08-22T00:03:31.299Z,5.87
2017-08-22T00:05:58.746Z,6.10
2017-08-22T00:08:26.207Z,5.90
2017-08-22T00:10:53.645Z,6.90
2017-08-22T00:13:21.118Z,6.70
2017-08-22T00:15:48.564Z,6.20
2017-08-22T00:18:16.006Z,6.20
2017-08-22T00:20:43.489Z,6.40
2017-08-22T00:23:10.957Z,6.60
2017-08-22T00:25:38.420Z,7.00
2017-08-22T00:28:05.888Z,7.67
2017-08-22T00:30:33.352Z,6.13
2017-08-22T00:33:00.812Z,6.20
2017-08-22T00:35:28.289Z,6.20
2017-08-22T00:37:55.752Z,6.30
2017-08-22T00:40:23.204Z,6.20
2017-08-22T00:42:50.662Z,5.50
2017-08-22T00:45:18.108Z,6.10
2017-08-22T00:47:45.567Z,5.87
2017-08-22T00:50:13.021Z,6.70
2017-08-22T00:52:40.488Z,6.20
2017-08-22T00:55:07.984Z,6.20
2017-08-22T00:57:35.429Z,5.80
2017-08-22T01:00:02.868Z,6.30
2017-08-22T01:02:30.335Z,6.90
2017-08-22T01:04:57.796Z,6.43
2017-08-22T01:07:25.248Z,6.33
2017-08-22T01:09:52.690Z,7.53
2017-08-22T01:12:20.161Z,6.00
2017-08-22T01:14:47.631Z,6.07
2017-08-22T01:17:15.084Z,6.57
2017-08-22T01:19:42.530Z,6.47
2017-08-22T01:22:10.005Z,6.33
2017-08-22T01:24:37.454Z,6.27
2017-08-22T01:27:04.938Z,5.93
2017-08-22T01:29:33.119Z,7.30
2017-08-22T01:32:00.571Z,6.47
2017-08-22T01:34:28.040Z,6.77
2017-08-22T01:36:55.515Z,5.83
2017-08-22T01:39:22.995Z,7.17
2017-08-22T01:41:50.452Z,6.87
2017-08-22T01:44:17.949Z,6.90
2017-08-22T01:46:45.385Z,6.87
2017-08-22T01:49:12.849Z,7.57
2017-08-22T01:51:40.379Z,7.03
2017-08-22T01:54:07.803Z,6.67
2017-08-22T01:56:35.240Z,7.00
2017-08-22T01:59:02.725Z,7.07
2017-08-22T02:01:31.012Z,7.27
2017-08-22T02:03:58.449Z,6.77
2017-08-22T02:06:25.923Z,6.70
2017-08-22T02:08:53.372Z,7.67
2017-08-22T02:11:20.835Z,7.43
2017-08-22T02:13:48.296Z,6.90
2017-08-22T02:16:15.732Z,6.73
2017-08-22T02:18:43.177Z,7.10
2017-08-22T02:21:10.638Z,7.60
2017-08-22T02:23:38.097Z,7.07
2017-08-22T02:26:05.575Z,8.30
2017-08-22T02:28:33.025Z,7.00
2017-08-22T02:31:00.481Z,7.93
2017-08-22T02:33:27.929Z,7.87
2017-08-22T02:35:55.402Z,8.07
2017-08-22T02:38:22.836Z,7.73
2017-08-22T02:40:50.306Z,8.27
2017-08-22T02:43:17.781Z,7.90
2017-08-22T02:45:45.221Z,7.60
2017-08-22T02:48:12.680Z,7.63
2017-08-22T02:50:40.144Z,8.77
2017-08-22T02:53:07.610Z,7.60
2017-08-22T02:55:35.076Z,8.20
2017-08-22T02:58:02.526Z,8.10
2017-08-22T03:00:30.035Z,7.70
2017-08-22T03:02:57.476Z,7.60
2017-08-22T03:05:24.958Z,9.10
2017-08-22T03:07:52.401Z,7.33
2017-08-22T03:10:19.835Z,6.57
2017-08-22T03:12:47.304Z,7.30
2017-08-22T03:15:14.742Z,7.47
2017-08-22T03:18:21.577Z,7.70
2017-08-22T03:20:49.014Z,8.37
2017-08-22T03:23:16.477Z,7.17
2017-08-22T03:25:43.936Z,8.47
2017-08-22T03:28:11.392Z,9.30
2017-08-22T03:30:38.860Z,9.00
2017-08-22T03:33:07.175Z,8.43
2017-08-22T03:35:34.626Z,8.67
2017-08-22T03:38:02.136Z,8.93
2017-08-22T03:40:29.633Z,8.87
2017-08-22T03:42:57.076Z,7.20
2017-08-22T03:45:24.502Z,7.50
2017-08-22T03:47:54.996Z,6.90
2017-08-22T03:50:22.444Z,7.13
2017-08-22T03:52:49.925Z,7.03
2017-08-22T03:55:17.360Z,7.10
2017-08-22T03:57:44.817Z,6.40
2017-08-22T04:00:12.256Z,7.20
2017-08-22T04:02:39.708Z,6.93
2017-08-22T04:05:07.167Z,9.40
2017-08-22T04:07:34.616Z,8.10
2017-08-22T04:10:02.053Z,7.77
2017-08-22T04:12:29.518Z,6.20
2017-08-22T04:14:57.000Z,7.00
2017-08-22T04:17:24.437Z,7.27
2017-08-22T04:19:52.884Z,7.60
2017-08-22T04:22:20.313Z,6.63
2017-08-22T04:24:47.775Z,6.57
2017-08-22T04:27:15.209Z,5.80
2017-08-22T04:29:42.670Z,6.77
2017-08-22T04:32:10.127Z,7.70
2017-08-22T04:34:37.573Z,7.37
2017-08-22T04:37:05.028Z,6.53
2017-08-22T04:39:32.459Z,7.37
2017-08-22T04:41:59.934Z,8.07
2017-08-22T04:44:27.376Z,6.73
2017-08-22T04:46:54.855Z,7.70
2017-08-22T04:49:22.312Z,6.57
2017-08-22T04:51:49.754Z,6.70
2017-08-22T04:54:17.214Z,7.10
2017-08-22T04:56:44.649Z,7.00
2017-08-22T04:59:12.104Z,6.70
2017-08-22T05:01:39.555Z,7.10
2017-08-22T05:04:07.064Z,7.00
2017-08-22T05:06:34.538Z,6.43
2017-08-22T05:09:01.992Z,6.43
2017-08-22T05:11:29.478Z,7.97
2017-08-22T05:13:56.935Z,6.83
2017-08-22T05:16:25.148Z,7.37
2017-08-22T05:18:52.591Z,6.80
2017-08-22T05:21:20.072Z,7.50
2017-08-22T05:23:47.543Z,7.83
2017-08-22T05:26:14.989Z,6.67
2017-08-22T05:28:42.427Z,8.00
2017-08-22T05:31:09.903Z,6.93
2017-08-22T05:33:37.377Z,6.20
2017-08-22T05:36:04.804Z,7.00
2017-08-22T05:38:32.274Z,6.20
2017-08-22T05:40:59.707Z,6.53
2017-08-22T05:43:27.160Z,5.70
2017-08-22T05:45:54.599Z,6.10
2017-08-22T05:48:22.076Z,6.23
2017-08-22T05:50:49.515Z,6.07
2017-08-22T05:53:16.951Z,5.40
2017-08-22T05:55:44.419Z,5.87
2017-08-22T05:58:11.855Z,5.90
2017-08-22T06:00:39.330Z,5.80
2017-08-22T06:03:07.507Z,6.70
2017-08-22T06:05:34.952Z,13.37
2017-08-22T06:08:02.401Z,6.10
2017-08-22T06:10:29.919Z,6.77
2017-08-22T06:12:57.402Z,6.80
2017-08-22T06:15:24.843Z,5.90
2017-08-22T06:17:52.287Z,5.63
2017-08-22T06:20:19.731Z,5.13
2017-08-22T06:22:47.180Z,5.17
2017-08-22T06:25:14.637Z,5.43
2017-08-22T06:27:42.093Z,5.83
2017-08-22T06:30:09.640Z,5.00
2017-08-22T06:32:37.159Z,5.70
2017-08-22T06:35:04.604Z,5.03
2017-08-22T06:37:32.071Z,4.90
2017-08-22T06:39:59.536Z,5.17
2017-08-22T06:42:26.968Z,4.67
2017-08-22T06:44:55.732Z,5.53
2017-08-22T06:47:23.180Z,5.93
2017-08-22T06:49:50.635Z,5.10
2017-08-22T06:52:18.128Z,5.50
2017-08-22T06:54:45.549Z,6.00
2017-08-22T06:57:13.012Z,6.20
2017-08-22T06:59:40.480Z,6.00
2017-08-22T07:02:07.921Z,6.20
2017-08-22T07:04:35.375Z,5.73
2017-08-22T07:07:02.832Z,5.27
2017-08-22T07:09:30.309Z,6.10
2017-08-22T07:11:57.760Z,5.50
2017-08-22T07:14:25.248Z,5.33
2017-08-22T07:16:52.716Z,5.50
2017-08-22T07:19:20.181Z,5.37
2017-08-22T07:21:47.624Z,5.53
2017-08-22T07:24:15.120Z,5.80
2017-08-22T07:26:42.604Z,5.83
2017-08-22T07:29:10.074Z,5.50
2017-08-22T07:31:37.514Z,5.30
2017-08-22T07:34:04.948Z,5.47
2017-08-22T07:36:32.420Z,5.03
2017-08-22T07:38:59.860Z,5.37
2017-08-22T07:41:27.292Z,4.97
2017-08-22T07:43:54.747Z,5.10
2017-08-22T07:46:22.213Z,6.00
2017-08-22T07:48:49.668Z,5.70
2017-08-22T07:51:17.108Z,5.17
2017-08-22T07:53:44.557Z,5.33
2017-08-22T07:56:11.997Z,4.60
2017-08-22T07:58:39.448Z,5.20
2017-08-22T08:01:06.907Z,5.40
2017-08-22T08:03:34.372Z,5.20
2017-08-22T08:06:02.622Z,5.97
2017-08-22T08:08:30.057Z,4.90
2017-08-22T08:10:57.501Z,4.93
2017-08-22T08:13:24.932Z,4.80
2017-08-22T08:15:52.399Z,5.20
2017-08-22T08:18:19.845Z,4.50
2017-08-22T08:20:47.316Z,4.73
2017-08-22T08:23:14.813Z,4.97
2017-08-22T08:25:42.297Z,5.20
2017-08-22T08:28:09.741Z,3.97
2017-08-22T08:30:37.196Z,5.10
2017-08-22T08:33:04.625Z,5.13
2017-08-22T08:35:32.087Z,5.00
2017-08-22T08:37:59.544Z,4.73
2017-08-22T08:40:26.976Z,3.90
2017-08-22T08:42:54.567Z,4.60
2017-08-22T08:45:22.047Z,4.40
2017-08-22T08:47:49.505Z,4.93
2017-08-22T08:50:16.948Z,5.47
2017-08-22T08:52:44.413Z,4.80
2017-08-22T08:55:11.851Z,5.07
2017-08-22T08:57:39.280Z,5.10
2017-08-22T09:00:06.744Z,3.97
2017-08-22T09:02:34.268Z,5.37
2017-08-22T09:05:01.748Z,4.30
2017-08-22T09:07:29.219Z,4.40
2017-08-22T09:09:56.708Z,5.53
2017-08-22T09:12:24.156Z,4.60
2017-08-22T09:14:51.589Z,5.03
2017-08-22T09:17:19.065Z,4.57
2017-08-22T09:19:46.500Z,5.40
2017-08-22T09:22:14.064Z,4.97
2017-08-22T09:24:41.640Z,4.50
2017-08-22T09:27:09.113Z,4.17
2017-08-22T09:29:36.552Z,4.97
2017-08-22T09:32:04.497Z,4.67
2017-08-22T09:34:32.032Z,4.20
2017-08-22T09:36:59.464Z,4.00
2017-08-22T09:39:26.925Z,4.63
2017-08-22T09:41:54.377Z,5.67
2017-08-22T09:44:21.831Z,5.17
2017-08-22T09:46:49.256Z,4.70
2017-08-22T09:49:17.479Z,4.00
2017-08-22T09:51:44.924Z,4.13
2017-08-22T09:54:12.380Z,4.30
2017-08-22T09:56:39.816Z,3.97
2017-08-22T09:59:07.276Z,4.03
2017-08-22T10:01:34.728Z,4.10
2017-08-22T10:04:02.185Z,3.80
2017-08-22T10:06:29.646Z,4.50
2017-08-22T10:08:57.096Z,4.40
2017-08-22T10:11:25.263Z,3.90
2017-08-22T10:13:53.462Z,3.73
2017-08-22T10:16:20.923Z,4.30
2017-08-22T10:18:48.377Z,3.60
2017-08-22T10:21:15.812Z,3.23
2017-08-22T10:23:43.328Z,3.83
2017-08-22T10:26:10.773Z,3.93
2017-08-22T10:28:38.236Z,4.17
2017-08-22T10:31:05.672Z,4.03
2017-08-22T10:33:33.125Z,4.83
2017-08-22T10:36:00.582Z,3.70
2017-08-22T10:38:28.037Z,3.60
2017-08-22T10:40:55.476Z,3.67
2017-08-22T10:43:22.945Z,3.80
2017-08-22T10:45:50.390Z,3.87
2017-08-22T10:48:18.280Z,3.97
2017-08-22T10:50:45.743Z,4.53
2017-08-22T10:53:13.170Z,4.30
2017-08-22T10:55:40.635Z,4.60
2017-08-22T10:58:08.068Z,3.83
2017-08-22T11:00:35.546Z,4.10
2017-08-22T11:03:03.006Z,4.20
2017-08-22T11:05:30.433Z,3.07
2017-08-22T11:07:57.892Z,4.20
2017-08-22T11:10:25.340Z,3.73
2017-08-22T11:12:52.793Z,4.00
2017-08-22T11:15:20.951Z,3.37
2017-08-22T11:17:48.400Z,3.60
2017-08-22T11:20:15.865Z,3.10
2017-08-22T11:22:43.289Z,3.40
2017-08-22T11:25:10.755Z,3.50
2017-08-22T11:27:38.232Z,3.30
2017-08-22T11:30:05.685Z,3.27
2017-08-22T11:32:33.129Z,3.60
2017-08-22T11:35:00.589Z,3.50
2017-08-22T11:37:28.052Z,3.97
2017-08-22T11:39:55.493Z,3.50
2017-08-22T11:42:22.967Z,3.07
2017-08-22T11:44:50.432Z,3.20
2017-08-22T11:47:18.660Z,3.43
2017-08-22T11:49:46.120Z,3.47
2017-08-22T11:52:13.553Z,3.30
2017-08-22T11:54:41.008Z,3.77
2017-08-22T11:57:08.455Z,3.20
2017-08-22T11:59:35.918Z,4.00
2017-08-22T12:02:03.354Z,3.27
2017-08-22T12:04:30.819Z,3.40
2017-08-22T12:06:58.278Z,2.93
2017-08-22T12:09:25.723Z,3.27
2017-08-22T12:11:53.180Z,3.40
2017-08-22T12:14:21.394Z,3.13
2017-08-22T12:16:48.854Z,3.33
2017-08-22T12:19:16.292Z,3.97
2017-08-22T12:21:43.749Z,3.27
2017-08-22T12:24:11.223Z,4.20
2017-08-22T12:26:38.685Z,3.00
2017-08-22T12:29:06.137Z,3.30
2017-08-22T12:31:33.578Z,3.00
2017-08-22T12:34:01.024Z,3.37
2017-08-22T12:36:28.459Z,3.63
2017-08-22T12:38:55.916Z,3.13
2017-08-22T12:41:23.369Z,3.40
2017-08-22T12:43:50.812Z,3.63
2017-08-22T12:46:18.291Z,3.30
2017-08-22T12:48:45.724Z,3.40
2017-08-22T12:51:13.948Z,4.20
2017-08-22T12:53:41.384Z,3.50
2017-08-22T12:56:08.845Z,4.20
2017-08-22T12:58:37.120Z,3.47
2017-08-22T13:01:04.560Z,6.13
2017-08-22T13:03:32.024Z,4.13
2017-08-22T13:05:59.465Z,3.53
2017-08-22T13:08:26.913Z,4.37
2017-08-22T13:10:54.352Z,3.90
2017-08-22T13:13:21.806Z,3.60
2017-08-22T13:15:49.330Z,3.77
2017-08-22T13:18:16.795Z,3.63
2017-08-22T13:20:44.230Z,3.23
2017-08-22T13:23:11.678Z,3.00
2017-08-22T13:25:39.178Z,3.07
2017-08-22T13:28:06.624Z,3.70
2017-08-22T13:30:34.089Z,3.97
2017-08-22T13:33:01.568Z,3.70
2017-08-22T13:35:29.064Z,3.63
2017-08-22T13:37:56.595Z,3.70
2017-08-22T13:40:24.037Z,3.10
2017-08-22T13:42:51.496Z,3.70
2017-08-22T13:45:18.955Z,3.43
2017-08-22T13:47:46.406Z,4.00
2017-08-22T13:50:14.641Z,3.53
2017-08-22T13:52:42.088Z,3.80
2017-08-22T13:55:09.828Z,3.40
2017-08-22T13:57:37.282Z,3.60
2017-08-22T14:00:04.724Z,3.40
2017-08-22T14:02:32.173Z,3.70
2017-08-22T14:05:00.395Z,3.60
2017-08-22T14:07:27.833Z,3.23
2017-08-22T14:09:55.289Z,2.83
2017-08-22T14:12:22.877Z,2.90
2017-08-22T14:14:50.433Z,3.63
2017-08-22T14:17:17.940Z,3.10
2017-08-22T14:19:45.384Z,2.90
2017-08-22T14:22:12.840Z,3.37
2017-08-22T14:24:40.275Z,2.77
2017-08-22T14:27:08.339Z,2.90
2017-08-22T14:29:35.768Z,3.60
2017-08-22T14:32:03.247Z,3.20
2017-08-22T14:34:30.787Z,3.43
2017-08-22T14:36:58.215Z,3.70
2017-08-22T14:39:25.679Z,3.30
2017-08-22T14:41:53.384Z,3.17
2017-08-22T14:44:20.813Z,3.50
2017-08-22T14:46:48.443Z,3.40
2017-08-22T14:49:15.879Z,3.70
2017-08-22T14:51:43.339Z,3.00
2017-08-22T14:54:10.776Z,3.80
2017-08-22T14:56:38.228Z,3.57
2017-08-22T14:59:05.684Z,3.00
2017-08-22T15:01:33.145Z,4.17
2017-08-22T15:04:00.604Z,7.70
2017-08-22T15:06:28.073Z,3.37
2017-08-22T15:08:55.511Z,3.40
2017-08-22T15:11:23.888Z,3.00
2017-08-22T15:13:51.363Z,3.20
2017-08-22T15:16:18.804Z,3.30
2017-08-22T15:18:46.999Z,3.23
2017-08-22T15:21:15.231Z,4.17
2017-08-22T15:23:42.696Z,3.10
2017-08-22T15:26:10.160Z,4.17
2017-08-22T15:28:37.600Z,3.20
2017-08-22T15:31:05.027Z,2.97
2017-08-22T15:33:32.488Z,4.20
2017-08-22T15:35:59.951Z,3.10
2017-08-22T15:38:27.470Z,3.40
2017-08-22T15:40:54.989Z,3.67
2017-08-22T15:43:22.461Z,3.40
2017-08-22T15:45:49.920Z,3.57
2017-08-22T15:48:17.372Z,3.60
2017-08-22T15:50:44.820Z,3.50
2017-08-22T15:53:12.280Z,5.83
2017-08-22T15:55:39.728Z,3.63
2017-08-22T15:58:07.179Z,3.00
2017-08-22T16:00:34.665Z,3.40
2017-08-22T16:03:02.891Z,3.17
2017-08-22T16:05:30.385Z,3.20
2017-08-22T16:07:57.824Z,3.47
2017-08-22T16:10:25.283Z,3.13
2017-08-22T16:12:52.732Z,3.40
2017-08-22T16:15:20.188Z,3.30
2017-08-22T16:17:47.655Z,3.43
2017-08-22T16:20:15.103Z,3.40
2017-08-22T16:22:42.570Z,2.77
2017-08-22T16:25:10.580Z,3.27
2017-08-22T16:27:38.068Z,3.60
2017-08-22T16:30:06.265Z,3.90
2017-08-22T16:32:33.719Z,3.70
2017-08-22T16:35:01.180Z,3.40
2017-08-22T16:37:28.615Z,4.70
2017-08-22T16:39:56.091Z,4.07
2017-08-22T16:42:23.564Z,4.40
2017-08-22T16:44:51.008Z,3.93
2017-08-22T16:47:18.489Z,4.00
2017-08-22T16:49:45.923Z,2.90
2017-08-22T16:52:13.368Z,3.23
2017-08-22T16:54:40.819Z,3.03
2017-08-22T16:57:08.270Z,3.77
2017-08-22T16:59:35.751Z,3.83
2017-08-22T17:02:03.192Z,3.40
2017-08-22T17:04:30.681Z,3.47
2017-08-22T17:06:58.128Z,3.27
2017-08-22T17:09:25.573Z,3.80
2017-08-22T17:11:53.049Z,3.73
2017-08-22T17:14:20.476Z,4.30
2017-08-22T17:16:47.932Z,4.90
2017-08-22T17:19:15.405Z,3.50
2017-08-22T17:21:42.868Z,3.77
2017-08-22T17:24:12.179Z,3.40
2017-08-22T17:26:39.651Z,3.70
2017-08-22T17:29:07.212Z,3.80
2017-08-22T17:31:34.672Z,4.77
2017-08-22T17:34:02.104Z,5.20
2017-08-22T17:36:29.591Z,3.50
2017-08-22T17:38:57.119Z,3.43
2017-08-22T17:41:24.574Z,3.57
2017-08-22T17:43:52.769Z,4.20
2017-08-22T17:46:20.235Z,3.50
2017-08-22T17:48:47.696Z,3.50
2017-08-22T17:51:15.152Z,4.27
2017-08-22T17:53:42.604Z,4.67
2017-08-22T17:56:10.059Z,4.37
2017-08-22T17:58:37.573Z,4.73
2017-08-22T18:01:05.001Z,4.23
2017-08-22T18:03:32.492Z,3.40
2017-08-22T18:05:59.930Z,3.80
2017-08-22T18:08:27.410Z,3.80
2017-08-22T18:10:54.863Z,7.53
2017-08-22T18:13:22.304Z,4.67
2017-08-22T18:15:49.777Z,4.13
2017-08-22T18:18:17.245Z,4.63
2017-08-22T18:20:44.704Z,4.47
2017-08-22T18:23:12.135Z,3.97
2017-08-22T18:25:39.617Z,4.47
2017-08-22T18:28:07.049Z,5.10
2017-08-22T18:30:34.517Z,3.90
2017-08-22T18:33:01.977Z,3.70
2017-08-22T18:35:30.176Z,4.50
2017-08-22T18:37:57.645Z,4.20
2017-08-22T18:40:25.105Z,4.80
2017-08-22T18:42:52.569Z,4.67
2017-08-22T18:45:20.025Z,4.37
2017-08-22T18:47:47.460Z,4.50
2017-08-22T18:50:14.928Z,4.70
2017-08-22T18:52:42.372Z,4.23
2017-08-22T18:55:10.414Z,4.80
2017-08-22T18:57:38.621Z,5.37
2017-08-22T19:00:06.077Z,5.30
2017-08-22T19:02:33.533Z,4.50
2017-08-22T19:05:01.076Z,4.00
2017-08-22T19:07:28.524Z,4.20
2017-08-22T19:09:55.993Z,4.30
2017-08-22T19:12:23.450Z,3.73
2017-08-22T19:14:50.932Z,3.70
2017-08-22T19:17:18.388Z,4.10
2017-08-22T19:19:46.694Z,3.70
2017-08-22T19:22:14.147Z,4.00
2017-08-22T19:24:41.648Z,4.83
2017-08-22T19:27:09.088Z,4.57
2017-08-22T19:29:36.566Z,6.43
2017-08-22T19:32:04.020Z,4.80
2017-08-22T19:34:31.546Z,4.93
2017-08-22T19:36:59.015Z,4.47
2017-08-22T19:39:27.242Z,5.30
2017-08-22T19:41:54.681Z,5.40
2017-08-22T19:44:22.133Z,5.43
2017-08-22T19:46:49.649Z,5.57
2017-08-22T19:49:17.112Z,6.00
2017-08-22T19:51:44.600Z,5.50
2017-08-22T19:54:12.054Z,5.43
2017-08-22T19:56:39.493Z,5.10
2017-08-22T19:59:10.796Z,5.37
2017-08-22T20:01:38.264Z,5.67
2017-08-22T20:04:06.276Z,5.57
2017-08-22T20:06:33.720Z,5.90
2017-08-22T20:09:01.195Z,6.03
2017-08-22T20:11:28.666Z,6.97
2017-08-22T20:13:56.127Z,8.87
2017-08-22T20:16:23.579Z,6.57
2017-08-22T20:18:51.038Z,12.80
2017-08-22T20:21:18.505Z,10.00
2017-08-22T20:23:45.991Z,6.20
2017-08-22T20:26:13.428Z,5.80
2017-08-22T20:28:40.906Z,5.77
2017-08-22T20:31:08.350Z,6.10
2017-08-22T20:33:35.816Z,5.37
2017-08-22T20:36:04.022Z,5.13
2017-08-22T20:38:31.493Z,5.40
2017-08-22T20:40:58.958Z,5.60
2017-08-22T20:43:26.424Z,5.27
2017-08-22T20:45:53.863Z,6.10
2017-08-22T20:48:21.316Z,5.10
2017-08-22T20:50:48.777Z,4.80
2017-08-22T20:53:16.228Z,4.70
2017-08-22T20:55:43.712Z,5.17
2017-08-22T20:58:11.157Z,4.90
2017-08-22T21:00:38.596Z,4.90
2017-08-22T21:03:06.067Z,5.30
2017-08-22T21:05:33.512Z,5.07
2017-08-22T21:08:00.996Z,5.40
2017-08-22T21:10:28.450Z,5.60
2017-08-22T21:12:55.896Z,5.57
2017-08-22T21:15:23.385Z,6.10
2017-08-22T21:17:50.828Z,6.03
2017-08-22T21:20:18.289Z,5.17
2017-08-22T21:22:45.737Z,5.60
2017-08-22T21:25:13.200Z,5.80
2017-08-22T21:27:40.688Z,5.53
2017-08-22T21:30:08.122Z,6.10
2017-08-22T21:32:35.611Z,5.47
2017-08-22T21:35:03.064Z,5.70
2017-08-22T21:37:30.573Z,5.80
2017-08-22T21:39:58.053Z,6.20
2017-08-22T21:42:25.506Z,6.43
2017-08-22T21:44:52.988Z,6.60
2017-08-22T21:47:20.416Z,5.20
2017-08-22T21:49:47.903Z,5.80
2017-08-22T21:52:15.468Z,6.03
2017-08-22T21:54:42.931Z,6.13
2017-08-22T21:57:10.387Z,5.80
2017-08-22T21:59:37.869Z,5.53
2017-08-22T22:02:05.348Z,6.40
2017-08-22T22:04:32.785Z,5.90
2017-08-22T22:07:00.250Z,6.47
2017-08-22T22:09:27.697Z,7.00
2017-08-22T22:11:55.200Z,6.40
2017-08-22T22:14:22.767Z,6.73
2017-08-22T22:16:50.262Z,6.20
2017-08-22T22:19:17.702Z,5.50
2017-08-22T22:21:45.176Z,5.90
2017-08-22T22:24:12.660Z,5.80
2017-08-22T22:26:40.109Z,6.30
2017-08-22T22:29:07.577Z,5.87
2017-08-22T22:31:35.440Z,5.70
2017-08-22T22:34:02.902Z,6.30
2017-08-22T22:36:30.349Z,6.10
2017-08-22T22:38:57.801Z,6.70
2017-08-22T22:41:25.290Z,6.23
2017-08-22T22:43:53.491Z,6.53
2017-08-22T22:46:20.953Z,5.60
2017-08-22T22:48:48.387Z,5.60
2017-08-22T22:51:15.853Z,6.33
2017-08-22T22:53:43.312Z,5.77
2017-08-22T22:56:10.777Z,6.13
2017-08-22T22:58:38.229Z,5.10
2017-08-22T23:01:05.699Z,5.80
2017-08-22T23:03:33.159Z,5.67
2017-08-22T23:06:00.607Z,6.40
2017-08-22T23:08:28.069Z,5.50
2017-08-22T23:10:55.541Z,6.27
2017-08-22T23:13:22.984Z,5.67
2017-08-22T23:15:50.430Z,6.33
2017-08-22T23:18:17.904Z,7.37
2017-08-22T23:20:45.356Z,5.53
2017-08-22T23:23:12.786Z,5.90
2017-08-22T23:25:40.255Z,5.77
2017-08-22T23:28:07.720Z,6.17
2017-08-22T23:30:35.931Z,5.67
2017-08-22T23:33:03.421Z,6.10
2017-08-22T23:35:30.934Z,6.00
2017-08-22T23:37:58.419Z,5.60
2017-08-22T23:40:25.888Z,5.13
2017-08-22T23:42:59.323Z,6.10
2017-08-22T23:45:26.796Z,5.50
2017-08-22T23:47:54.270Z,6.10
2017-08-22T23:50:21.711Z,5.63
2017-08-22T23:52:49.280Z,6.33
2017-08-22T23:55:16.736Z,6.03
2017-08-22T23:57:44.160Z,6.10
